Time;durP1;ratioP1;P1;durP2;ratioP2;P2;SDS_P1;SDS_P2;PMS_P1;PMS_P2;Temp;Humidity;BMP_temperature;BMP_pressure;BME280_temperature;BME280_humidity;BME280_pressure;Samples;Min_cycle;Max_cycle;Signal;HPM_P1;HPM_P2
2021/03/09 00:00:49;;;;;;;55.33;33.63;;;3.50;93.30;;;;;;4972200;28;20148;-38
2021/03/09 00:03:15;;;;;;;59.22;36.38;;;3.50;93.20;;;;;;4967429;28;20057;-38
2021/03/09 00:05:40;;;;;;;61.20;36.08;;;3.50;93.40;;;;;;4966521;28;20050;-37
2021/03/09 00:08:07;;;;;;;52.72;32.47;;;3.50;93.70;;;;;;4974143;28;20133;-38
2021/03/09 00:10:32;;;;;;;56.67;32.80;;;3.40;93.50;;;;;;4994410;28;20152;-38
2021/03/09 00:12:58;;;;;;;52.17;33.15;;;3.40;93.70;;;;;;4994228;28;20487;-38
2021/03/09 00:15:24;;;;;;;69.80;38.22;;;3.40;93.80;;;;;;4996035;28;20120;-38
2021/03/09 00:17:50;;;;;;;55.78;34.25;;;3.40;93.80;;;;;;4996664;28;20054;-38
2021/03/09 00:20:17;;;;;;;62.58;37.00;;;3.40;93.70;;;;;;4990270;28;20054;-38
2021/03/09 00:22:43;;;;;;;61.30;36.70;;;3.50;93.90;;;;;;4972873;28;20170;-37
2021/03/09 00:25:09;;;;;;;67.50;39.10;;;3.40;94.00;;;;;;5002457;28;20115;-37
2021/03/09 00:27:35;;;;;;;56.50;33.45;;;3.40;93.80;;;;;;4992234;28;20041;-38
2021/03/09 00:30:01;;;;;;;57.10;36.88;;;3.40;93.60;;;;;;4985624;28;20073;-38
2021/03/09 00:32:27;;;;;;;63.13;35.08;;;3.40;93.90;;;;;;4985535;28;20049;-38
2021/03/09 00:34:52;;;;;;;61.15;35.97;;;3.40;93.70;;;;;;4976085;28;20050;-38
2021/03/09 00:37:18;;;;;;;62.47;38.42;;;3.40;93.80;;;;;;4995895;28;20521;-38
2021/03/09 00:39:44;;;;;;;63.30;38.63;;;3.40;93.90;;;;;;4998449;28;20710;-38
2021/03/09 00:42:10;;;;;;;61.42;39.03;;;3.50;94.10;;;;;;4976681;28;20395;-38
2021/03/09 00:44:44;;;;;;;72.70;39.92;;;3.50;94.00;;;;;;4994820;28;20080;-39
2021/03/09 00:47:10;;;;;;;76.93;40.85;;;3.50;94.20;;;;;;4978762;28;20560;-39
2021/03/09 00:53:17;;;;;;;73.20;39.65;;;3.50;94.40;;;;;;4991460;28;20041;-40
2021/03/09 00:55:43;;;;;;;72.50;39.97;;;3.50;94.30;;;;;;4977129;28;20049;-42
2021/03/09 00:58:09;;;;;;;73.43;40.60;;;3.50;94.30;;;;;;4982159;28;20466;-39
2021/03/09 01:00:35;;;;;;;60.03;37.28;;;3.50;94.40;;;;;;4992614;28;20033;-39
2021/03/09 01:03:00;;;;;;;69.93;35.50;;;3.40;94.30;;;;;;4973470;28;20133;-40
2021/03/09 01:05:26;;;;;;;63.85;35.97;;;3.40;94.40;;;;;;4992699;28;20499;-40
2021/03/09 01:07:52;;;;;;;63.28;37.72;;;3.40;94.30;;;;;;5000687;28;20136;-39
2021/03/09 01:10:20;;;;;;;64.32;35.03;;;3.40;94.40;;;;;;4988160;28;20127;-41
2021/03/09 01:12:46;;;;;;;60.28;35.92;;;3.40;94.40;;;;;;4986468;28;20677;-40
2021/03/09 01:15:12;;;;;;;62.25;33.53;;;3.40;94.40;;;;;;4999339;28;20056;-40
2021/03/09 01:17:38;;;;;;;63.03;34.00;;;3.40;94.50;;;;;;4984907;28;20105;-40
2021/03/09 01:20:06;;;;;;;69.47;35.67;;;3.40;94.40;;;;;;4974461;28;20050;-40
2021/03/09 01:22:33;;;;;;;62.40;33.28;;;3.40;94.50;;;;;;4987837;28;20046;-41
2021/03/09 01:24:59;;;;;;;63.80;34.90;;;3.30;94.50;;;;;;4996409;28;20554;-40
2021/03/09 01:27:25;;;;;;;59.10;32.15;;;3.40;94.50;;;;;;4986765;28;20053;-42
2021/03/09 01:29:50;;;;;;;62.80;33.38;;;3.40;94.40;;;;;;4975253;28;20086;-41
2021/03/09 01:32:16;;;;;;;62.78;32.72;;;3.30;94.60;;;;;;4989479;28;20048;-43
2021/03/09 01:34:42;;;;;;;58.67;32.08;;;3.40;94.50;;;;;;4967831;28;20122;-41
2021/03/09 01:37:48;;;;;;;58.65;31.40;;;3.40;94.70;;;;;;4997896;28;20042;-41
2021/03/09 01:40:14;;;;;;;57.88;30.00;;;3.40;94.70;;;;;;4996196;28;20045;-42
2021/03/09 01:42:40;;;;;;;48.95;29.67;;;3.40;94.60;;;;;;4979797;28;20058;-40
2021/03/09 01:45:07;;;;;;;52.15;30.38;;;3.40;94.50;;;;;;4994702;28;20046;-40
2021/03/09 01:47:39;;;;;;;59.22;30.30;;;3.40;94.70;;;;;;4986758;28;20107;-40
2021/03/09 01:50:06;;;;;;;51.70;28.77;;;3.40;94.70;;;;;;4996042;28;20407;-40
2021/03/09 01:52:32;;;;;;;54.75;29.83;;;3.40;94.60;;;;;;4983709;28;20058;-41
2021/03/09 01:54:58;;;;;;;56.88;31.13;;;3.40;94.70;;;;;;4965585;28;20053;-40
2021/03/09 01:57:24;;;;;;;53.10;29.55;;;3.40;94.70;;;;;;4974840;28;20050;-41
2021/03/09 01:59:50;;;;;;;56.33;29.13;;;3.40;94.70;;;;;;4989614;28;20704;-39
2021/03/09 02:02:16;;;;;;;54.83;28.90;;;3.40;94.70;;;;;;5000076;28;20104;-40
2021/03/09 02:04:42;;;;;;;48.50;27.02;;;3.40;94.70;;;;;;4971197;28;20533;-41
2021/03/09 02:07:08;;;;;;;48.28;27.83;;;3.50;94.60;;;;;;4984437;28;20767;-40
2021/03/09 02:09:35;;;;;;;52.47;28.25;;;3.50;94.60;;;;;;4992427;28;20057;-40
2021/03/09 02:12:22;;;;;;;53.33;29.00;;;3.50;94.70;;;;;;4966745;28;20054;-40
2021/03/09 02:15:10;;;;;;;53.63;27.70;;;3.50;94.70;;;;;;4977462;28;20078;-40
2021/03/09 02:17:56;;;;;;;53.25;30.20;;;3.50;94.60;;;;;;4988673;28;20049;-43
2021/03/09 02:20:38;;;;;;;50.33;28.27;;;3.50;94.70;;;;;;4989088;28;20038;-41
2021/03/09 02:23:38;;;;;;;51.25;29.27;;;3.50;94.60;;;;;;4977544;28;20049;-43
2021/03/09 02:26:48;;;;;;;54.70;29.17;;;3.50;94.80;;;;;;4990060;28;20050;-41
2021/03/09 02:29:41;;;;;;;50.60;26.63;;;3.50;94.80;;;;;;4934968;29;20071;-40
2021/03/09 02:32:13;;;;;;;48.33;28.63;;;3.50;94.80;;;;;;4936079;29;20609;-41
2021/03/09 02:34:50;;;;;;;54.30;28.60;;;3.50;94.90;;;;;;4934402;28;20047;-45
2021/03/09 02:37:29;;;;;;;53.70;29.52;;;3.50;94.90;;;;;;4927697;29;20107;-43
2021/03/09 02:39:56;;;;;;;59.40;30.05;;;3.50;94.90;;;;;;4936611;29;20138;-45
2021/03/09 02:42:27;;;;;;;56.97;30.55;;;3.60;95.00;;;;;;4936149;29;20055;-42
2021/03/09 02:44:58;;;;;;;49.03;27.75;;;3.50;94.90;;;;;;4932475;29;20048;-41
2021/03/09 02:47:25;;;;;;;54.92;30.80;;;3.60;94.70;;;;;;4930208;29;20052;-44
2021/03/09 02:50:40;;;;;;;55.13;31.05;;;3.60;94.70;;;;;;4938939;29;20130;-42
2021/03/09 02:53:11;;;;;;;50.00;30.25;;;3.60;94.90;;;;;;4937996;29;20055;-44
2021/03/09 02:55:38;;;;;;;56.33;31.23;;;3.60;94.80;;;;;;4936281;28;20066;-42
2021/03/09 02:58:09;;;;;;;55.53;31.95;;;3.60;94.80;;;;;;4933381;28;20067;-42
2021/03/09 03:00:38;;;;;;;59.70;33.22;;;3.60;94.90;;;;;;4942911;28;20593;-41
2021/03/09 03:03:07;;;;;;;56.15;31.15;;;3.60;94.90;;;;;;4927030;29;20044;-43
2021/03/09 03:05:38;;;;;;;50.63;30.58;;;3.60;94.80;;;;;;4968835;28;20114;-43
2021/03/09 03:08:07;;;;;;;58.22;31.90;;;3.70;94.90;;;;;;4997640;28;20053;-42
2021/03/09 03:10:35;;;;;;;66.72;35.22;;;3.60;94.90;;;;;;4999660;28;20037;-43
2021/03/09 03:13:15;;;;;;;61.40;34.78;;;3.70;95.10;;;;;;4995056;28;20082;-43
2021/03/09 03:15:42;;;;;;;62.47;36.40;;;3.70;95.00;;;;;;4996810;28;20050;-42
2021/03/09 03:18:15;;;;;;;59.42;35.03;;;3.70;95.00;;;;;;4970327;28;20108;-43
2021/03/09 03:21:10;;;;;;;55.10;33.03;;;3.70;95.10;;;;;;4996986;28;20136;-48
2021/03/09 03:23:38;;;;;;;62.58;33.78;;;3.70;94.90;;;;;;4990645;28;20136;-45
2021/03/09 03:26:06;;;;;;;72.03;36.78;;;3.70;95.00;;;;;;5001063;28;20077;-41
2021/03/09 03:28:38;;;;;;;72.15;37.38;;;3.70;95.10;;;;;;4986987;28;20046;-44
2021/03/09 03:31:04;;;;;;;68.47;34.58;;;3.70;95.10;;;;;;4998410;28;20117;-46
2021/03/09 03:33:31;;;;;;;62.92;34.30;;;3.70;95.10;;;;;;4989649;28;20038;-43
2021/03/09 03:36:06;;;;;;;66.15;34.45;;;3.70;95.10;;;;;;4988525;28;20042;-44
2021/03/09 03:38:37;;;;;;;66.28;38.50;;;3.70;95.20;;;;;;4972774;28;20074;-42
2021/03/09 03:41:04;;;;;;;74.00;37.20;;;3.80;95.30;;;;;;4976398;28;20046;-42
2021/03/09 03:43:55;;;;;;;75.47;39.28;;;3.80;95.30;;;;;;4992412;28;20176;-44
2021/03/09 03:46:21;;;;;;;69.85;36.50;;;3.70;95.40;;;;;;5001417;28;20088;-44
2021/03/09 03:48:47;;;;;;;69.90;35.58;;;3.70;95.40;;;;;;4975996;28;20054;-43
2021/03/09 03:51:15;;;;;;;76.60;39.78;;;3.70;95.30;;;;;;4989558;28;20402;-42
2021/03/09 03:54:14;;;;;;;66.63;35.00;;;3.70;95.40;;;;;;4995811;28;20061;-42
2021/03/09 03:56:43;;;;;;;70.97;35.67;;;3.70;95.40;;;;;;4997615;28;20835;-46
2021/03/09 03:59:18;;;;;;;69.28;36.78;;;3.70;95.70;;;;;;4991351;28;20042;-44
2021/03/09 04:01:46;;;;;;;72.47;38.08;;;3.70;95.40;;;;;;4992887;28;20500;-43
2021/03/09 04:04:13;;;;;;;71.45;35.85;;;3.70;95.40;;;;;;4978244;28;20054;-43
2021/03/09 04:06:46;;;;;;;82.60;39.83;;;3.70;95.40;;;;;;5003199;28;20069;-41
2021/03/09 04:09:13;;;;;;;73.28;36.17;;;3.80;95.60;;;;;;4988791;28;20047;-44
2021/03/09 04:11:40;;;;;;;67.45;35.42;;;3.80;95.50;;;;;;4989250;28;20455;-42
2021/03/09 04:14:08;;;;;;;72.55;37.75;;;3.80;95.70;;;;;;4974101;28;20061;-43
2021/03/09 04:16:36;;;;;;;70.32;38.17;;;3.70;95.70;;;;;;4992224;28;20125;-44
2021/03/09 04:19:04;;;;;;;87.47;40.47;;;3.80;95.60;;;;;;4988538;28;20046;-42
2021/03/09 04:21:31;;;;;;;80.53;37.97;;;3.80;95.70;;;;;;4997286;28;20042;-42
2021/03/09 04:23:59;;;;;;;84.95;39.83;;;3.80;95.70;;;;;;4997734;28;20046;-45
2021/03/09 04:26:27;;;;;;;92.00;39.97;;;3.80;95.70;;;;;;4987461;28;20447;-44
2021/03/09 04:28:54;;;;;;;80.88;38.35;;;3.80;95.70;;;;;;4990310;28;20129;-42
2021/03/09 04:31:20;;;;;;;76.72;36.47;;;3.80;95.70;;;;;;4987700;28;20065;-43
2021/03/09 04:33:49;;;;;;;80.85;40.33;;;3.80;95.80;;;;;;4990885;28;20809;-43
2021/03/09 04:36:17;;;;;;;74.80;38.47;;;3.90;95.70;;;;;;4996094;28;20046;-42
2021/03/09 04:38:43;;;;;;;83.88;39.10;;;3.80;95.60;;;;;;4993955;28;20100;-43
2021/03/09 04:41:10;;;;;;;79.20;39.50;;;3.90;95.70;;;;;;4994604;28;20073;-42
2021/03/09 04:43:37;;;;;;;84.15;42.03;;;3.80;95.80;;;;;;4998691;28;20818;-41
2021/03/09 04:46:04;;;;;;;85.45;39.90;;;3.80;95.70;;;;;;4994381;28;20097;-41
2021/03/09 04:48:30;;;;;;;90.95;40.95;;;3.90;95.80;;;;;;4993906;28;20050;-41
2021/03/09 04:51:10;;;;;;;92.07;42.95;;;3.90;95.70;;;;;;4999213;28;20069;-43
2021/03/09 04:53:36;;;;;;;95.40;42.33;;;3.90;95.70;;;;;;4973726;28;20133;-41
2021/03/09 04:56:02;;;;;;;85.65;40.53;;;3.90;95.70;;;;;;4988968;28;20580;-41
2021/03/09 04:58:28;;;;;;;86.63;41.67;;;3.90;95.70;;;;;;4999556;28;20045;-42
2021/03/09 05:00:55;;;;;;;78.40;38.13;;;3.90;95.80;;;;;;4974850;28;20415;-42
2021/03/09 05:03:21;;;;;;;88.35;42.25;;;3.90;95.80;;;;;;4989454;28;20081;-41
2021/03/09 05:05:46;;;;;;;86.35;38.55;;;4.00;95.90;;;;;;4969992;28;20050;-41
2021/03/09 05:08:12;;;;;;;91.70;41.88;;;4.00;95.90;;;;;;4984909;28;20096;-41
2021/03/09 05:10:38;;;;;;;78.50;38.90;;;4.00;95.90;;;;;;4993599;28;20096;-40
2021/03/09 05:13:04;;;;;;;101.78;44.15;;;4.00;95.90;;;;;;4998635;28;20042;-40
2021/03/09 05:15:30;;;;;;;94.05;44.08;;;4.00;95.90;;;;;;4996767;28;20154;-40
2021/03/09 05:17:56;;;;;;;89.65;41.53;;;4.00;96.10;;;;;;4999041;28;20038;-40
2021/03/09 05:20:23;;;;;;;92.35;41.80;;;4.00;95.90;;;;;;4992159;28;20180;-39
2021/03/09 05:22:48;;;;;;;101.35;44.10;;;4.00;95.90;;;;;;4988843;28;20045;-40
2021/03/09 05:25:16;;;;;;;96.63;44.50;;;4.10;96.00;;;;;;4995322;28;20045;-40
2021/03/09 05:27:43;;;;;;;122.68;48.03;;;4.10;96.20;;;;;;4988425;28;20078;-41
2021/03/09 05:30:11;;;;;;;122.38;48.83;;;4.10;96.40;;;;;;4993463;28;20044;-40
2021/03/09 05:32:36;;;;;;;116.50;48.88;;;4.10;96.30;;;;;;4989855;28;20160;-41
2021/03/09 05:35:04;;;;;;;119.28;48.80;;;4.10;96.30;;;;;;4968088;28;20161;-40
2021/03/09 05:37:30;;;;;;;118.57;48.72;;;4.20;96.40;;;;;;4999593;28;20041;-41
2021/03/09 05:39:56;;;;;;;136.95;53.55;;;4.20;96.40;;;;;;4993748;28;20852;-41
2021/03/09 05:42:22;;;;;;;122.30;47.70;;;4.20;96.30;;;;;;4987878;28;20414;-40
2021/03/09 05:44:48;;;;;;;125.95;50.25;;;4.20;96.30;;;;;;4981488;28;20057;-40
2021/03/09 05:47:14;;;;;;;131.38;50.47;;;4.20;96.20;;;;;;4987369;28;20054;-40
2021/03/09 05:49:40;;;;;;;154.25;55.13;;;4.30;96.30;;;;;;4992883;28;20124;-40
2021/03/09 05:52:09;;;;;;;126.95;51.75;;;4.20;96.30;;;;;;4985757;28;20471;-39
2021/03/09 05:54:34;;;;;;;150.80;54.92;;;4.30;96.40;;;;;;4990400;28;20818;-40
2021/03/09 05:57:00;;;;;;;202.45;60.95;;;4.30;96.40;;;;;;4993543;28;20049;-39
2021/03/09 05:59:27;;;;;;;158.20;56.67;;;4.30;96.30;;;;;;4982158;28;20542;-39
2021/03/09 06:01:53;;;;;;;223.65;62.17;;;4.30;96.30;;;;;;4993885;28;20550;-39
2021/03/09 06:04:19;;;;;;;194.48;61.95;;;4.30;96.20;;;;;;4971946;28;20056;-42
2021/03/09 06:06:46;;;;;;;160.13;56.50;;;4.30;96.20;;;;;;4993139;28;20060;-39
2021/03/09 06:09:34;;;;;;;167.70;64.05;;;4.40;96.30;;;;;;4987711;28;20125;-40
2021/03/09 06:12:13;;;;;;;165.77;59.00;;;4.40;96.60;;;;;;4987153;28;20073;-40
2021/03/09 06:14:44;;;;;;;205.57;63.60;;;4.40;96.50;;;;;;5003455;28;20072;-40
2021/03/09 06:17:14;;;;;;;158.13;60.95;;;4.40;96.50;;;;;;4992425;28;20081;-37
2021/03/09 06:19:48;;;;;;;172.10;66.07;;;4.50;96.60;;;;;;4989619;28;20052;-37
2021/03/09 06:22:16;;;;;;;134.27;61.33;;;4.60;96.90;;;;;;4996599;28;20041;-37
2021/03/09 06:24:43;;;;;;;149.38;58.00;;;4.70;96.90;;;;;;4989146;28;20104;-37
2021/03/09 06:27:30;;;;;;;111.88;54.08;;;4.80;96.80;;;;;;4986317;28;20068;-37
2021/03/09 06:29:57;;;;;;;161.00;59.92;;;4.80;96.80;;;;;;4984864;28;20042;-37
2021/03/09 06:32:23;;;;;;;141.65;57.03;;;4.80;96.80;;;;;;4983687;28;20050;-37
2021/03/09 06:34:52;;;;;;;119.50;54.13;;;4.80;96.90;;;;;;4989819;28;20101;-37
2021/03/09 06:37:27;;;;;;;139.13;57.42;;;4.80;96.80;;;;;;4985343;28;20042;-38
2021/03/09 06:40:03;;;;;;;192.43;64.07;;;4.90;96.80;;;;;;4967303;28;20126;-37
2021/03/09 06:42:39;;;;;;;203.40;64.30;;;4.90;96.90;;;;;;4977563;28;20104;-37
2021/03/09 06:45:14;;;;;;;171.48;61.40;;;4.90;96.90;;;;;;4990627;28;20046;-37
2021/03/09 06:47:48;;;;;;;152.05;58.97;;;4.90;96.90;;;;;;4976217;28;20145;-37
2021/03/09 06:50:18;;;;;;;175.45;62.70;;;4.90;96.90;;;;;;4992691;28;20128;-40
2021/03/09 06:52:56;;;;;;;320.55;79.43;;;4.90;97.00;;;;;;4979192;28;20766;-39
2021/03/09 06:55:28;;;;;;;321.95;95.45;;;5.00;97.00;;;;;;4997803;28;20096;-40
2021/03/09 06:58:12;;;;;;;303.80;81.88;;;5.00;97.10;;;;;;4997862;28;20042;-40
2021/03/09 07:00:42;;;;;;;334.00;83.18;;;5.00;97.10;;;;;;4997765;28;20417;-40
2021/03/09 07:03:36;;;;;;;370.85;85.68;;;5.00;97.20;;;;;;4998974;28;20045;-40
2021/03/09 07:06:03;;;;;;;309.27;77.28;;;5.10;97.30;;;;;;4993990;28;20050;-40
2021/03/09 07:08:29;;;;;;;280.73;74.30;;;5.10;97.40;;;;;;5002239;28;20064;-41
2021/03/09 07:10:56;;;;;;;295.92;75.65;;;5.10;97.40;;;;;;4978735;28;20046;-41
2021/03/09 07:13:24;;;;;;;312.23;77.28;;;5.10;97.60;;;;;;4995912;28;20067;-41
2021/03/09 07:15:51;;;;;;;331.35;78.03;;;5.20;97.70;;;;;;4974794;28;20050;-40
2021/03/09 07:18:27;;;;;;;297.48;75.43;;;5.10;97.70;;;;;;4993889;28;20133;-41
2021/03/09 07:20:55;;;;;;;357.35;76.25;;;5.30;97.80;;;;;;4988985;28;20823;-40
2021/03/09 07:23:22;;;;;;;200.40;67.90;;;5.20;97.80;;;;;;4981817;28;20636;-41
2021/03/09 07:25:58;;;;;;;352.38;75.30;;;5.30;97.90;;;;;;4993729;28;20042;-42
2021/03/09 07:28:30;;;;;;;391.10;75.45;;;5.30;98.00;;;;;;4993601;28;20158;-40
2021/03/09 07:30:58;;;;;;;397.33;72.10;;;5.30;98.00;;;;;;4982450;28;20079;-41
2021/03/09 07:33:25;;;;;;;350.10;67.22;;;5.40;98.20;;;;;;4986246;28;20076;-40
2021/03/09 07:35:51;;;;;;;287.17;60.70;;;5.40;98.10;;;;;;4971683;28;20144;-40
2021/03/09 07:38:21;;;;;;;285.73;59.28;;;5.40;98.10;;;;;;4994033;28;20101;-42
2021/03/09 07:40:47;;;;;;;336.80;63.92;;;5.50;98.20;;;;;;4978818;28;20054;-40
2021/03/09 07:43:13;;;;;;;282.40;59.25;;;5.50;98.20;;;;;;5001358;28;20065;-42
2021/03/09 07:45:39;;;;;;;313.55;87.38;;;5.50;98.40;;;;;;4984824;28;20050;-40
2021/03/09 07:48:06;;;;;;;277.27;59.10;;;5.60;98.40;;;;;;4998842;28;20050;-42
2021/03/09 07:50:46;;;;;;;261.95;60.90;;;5.60;98.40;;;;;;4977553;28;20050;-43
2021/03/09 07:53:20;;;;;;;207.48;47.80;;;5.60;98.40;;;;;;4998361;28;20085;-41
2021/03/09 07:56:09;;;;;;;195.50;47.10;;;5.60;98.40;;;;;;4974120;28;20080;-43
2021/03/09 07:58:35;;;;;;;190.75;49.40;;;5.70;98.40;;;;;;4990435;28;20054;-42
2021/03/09 08:01:03;;;;;;;205.20;44.63;;;5.70;98.40;;;;;;4982845;28;20136;-47
2021/03/09 08:03:36;;;;;;;224.45;47.78;;;5.70;98.40;;;;;;4991738;28;20049;-43
2021/03/09 08:06:04;;;;;;;219.80;43.55;;;5.80;98.40;;;;;;4974600;28;20034;-42
2021/03/09 08:08:49;;;;;;;154.27;45.72;;;5.80;98.30;;;;;;4977957;28;20045;-43
2021/03/09 08:11:24;;;;;;;276.20;48.00;;;5.80;98.30;;;;;;4999438;28;20045;-42
2021/03/09 08:14:08;;;;;;;244.40;45.10;;;5.80;98.30;;;;;;5001622;28;20725;-40
2021/03/09 08:16:43;;;;;;;281.52;52.25;;;5.90;98.30;;;;;;4977429;28;20053;-40
2021/03/09 08:19:11;;;;;;;214.63;45.47;;;5.90;98.30;;;;;;4994363;28;20184;-41
2021/03/09 08:21:47;;;;;;;168.68;38.85;;;6.00;98.30;;;;;;4994729;28;20553;-44
2021/03/09 08:24:13;;;;;;;141.23;34.67;;;5.90;98.10;;;;;;4957708;28;20054;-42
2021/03/09 08:26:38;;;;;;;152.23;38.65;;;6.00;98.00;;;;;;4990973;28;20050;-43
2021/03/09 08:29:29;;;;;;;141.45;33.53;;;5.90;98.00;;;;;;4994790;28;20054;-40
2021/03/09 08:32:23;;;;;;;129.10;30.13;;;6.00;98.00;;;;;;4993574;28;20120;-40
2021/03/09 08:34:50;;;;;;;116.05;28.92;;;6.00;97.80;;;;;;4994939;28;20042;-39
2021/03/09 08:37:32;;;;;;;105.72;28.25;;;6.00;97.80;;;;;;4992751;28;20046;-40
2021/03/09 08:40:13;;;;;;;101.38;30.65;;;6.00;97.60;;;;;;4993101;28;20038;-40
2021/03/09 08:43:00;;;;;;;136.27;33.10;;;6.00;97.50;;;;;;4997144;28;20053;-40
2021/03/09 08:45:54;;;;;;;101.30;28.35;;;6.00;97.50;;;;;;4979526;28;20305;-40
2021/03/09 08:48:41;;;;;;;105.72;27.65;;;6.00;97.50;;;;;;4993394;28;20042;-41
2021/03/09 08:51:06;;;;;;;110.03;27.25;;;6.00;97.40;;;;;;4991935;28;20061;-42
2021/03/09 08:53:34;;;;;;;102.32;25.90;;;6.00;97.40;;;;;;4978628;28;20096;-41
2021/03/09 08:56:04;;;;;;;105.05;26.65;;;6.00;97.30;;;;;;4976791;28;20109;-42
2021/03/09 08:58:32;;;;;;;127.45;31.70;;;6.00;97.30;;;;;;4993663;28;20356;-39
2021/03/09 09:00:58;;;;;;;122.07;30.83;;;6.00;97.10;;;;;;4979941;28;20042;-39
2021/03/09 09:03:44;;;;;;;137.85;49.45;;;6.10;97.20;;;;;;4960407;28;20054;-39
2021/03/09 09:06:10;;;;;;;89.68;24.25;;;6.10;97.20;;;;;;5000222;28;20057;-39
2021/03/09 09:08:36;;;;;;;102.75;28.27;;;6.10;97.00;;;;;;4999661;28;20053;-39
2021/03/09 09:11:02;;;;;;;113.50;32.30;;;6.10;97.00;;;;;;4994923;28;20459;-38
2021/03/09 09:13:29;;;;;;;89.80;24.65;;;6.10;97.00;;;;;;5000732;28;20079;-39
2021/03/09 09:15:55;;;;;;;95.32;25.42;;;6.10;97.00;;;;;;5002843;28;21395;-38
2021/03/09 09:18:22;;;;;;;106.53;26.23;;;6.20;97.00;;;;;;4996076;28;20061;-39
2021/03/09 09:20:49;;;;;;;69.93;24.00;;;6.20;96.90;;;;;;4994014;28;20046;-39
2021/03/09 09:23:21;;;;;;;75.80;22.77;;;6.20;96.50;;;;;;4994314;28;20033;-39
2021/03/09 09:25:48;;;;;;;90.15;24.90;;;6.20;96.50;;;;;;4991720;28;20100;-38
2021/03/09 09:28:25;;;;;;;153.85;89.88;;;6.20;96.60;;;;;;4997304;28;20136;-39
2021/03/09 09:30:53;;;;;;;80.95;25.80;;;6.20;96.70;;;;;;4997552;28;20053;-38
2021/03/09 09:33:20;;;;;;;79.88;26.20;;;6.20;96.60;;;;;;4975131;28;20065;-38
2021/03/09 09:35:48;;;;;;;88.20;36.83;;;6.30;96.50;;;;;;4993902;28;20088;-39
2021/03/09 09:38:15;;;;;;;80.43;29.00;;;6.20;96.40;;;;;;4993201;28;20052;-38
2021/03/09 09:40:47;;;;;;;90.47;30.60;;;6.20;96.30;;;;;;4990543;28;20481;-39
2021/03/09 09:43:19;;;;;;;96.97;33.15;;;6.30;96.20;;;;;;4994521;28;20545;-39
2021/03/09 09:45:45;;;;;;;92.97;33.33;;;6.30;96.20;;;;;;4996021;28;20161;-38
2021/03/09 09:48:19;;;;;;;109.25;39.75;;;6.30;96.10;;;;;;4995222;28;20050;-39
2021/03/09 09:50:54;;;;;;;103.97;39.80;;;6.20;96.00;;;;;;4991699;28;20050;-38
2021/03/09 09:53:34;;;;;;;117.55;44.42;;;6.30;96.00;;;;;;4992678;28;20109;-38
2021/03/09 09:56:12;;;;;;;103.38;40.67;;;6.30;96.10;;;;;;4991966;28;20061;-38
2021/03/09 09:58:47;;;;;;;104.18;43.28;;;6.30;95.80;;;;;;4989048;28;20602;-39
2021/03/09 10:01:15;;;;;;;90.22;41.70;;;6.30;95.80;;;;;;4979506;28;20037;-39
2021/03/09 10:03:50;;;;;;;101.47;44.97;;;6.40;95.80;;;;;;4997194;28;20057;-38
2021/03/09 10:06:17;;;;;;;88.50;44.35;;;6.40;95.80;;;;;;4989460;28;20050;-39
2021/03/09 10:08:44;;;;;;;95.10;44.65;;;6.40;95.80;;;;;;4992687;28;20507;-39
2021/03/09 10:11:11;;;;;;;104.38;44.45;;;6.40;95.60;;;;;;4993138;28;20047;-39
2021/03/09 10:13:38;;;;;;;86.43;44.75;;;6.50;95.70;;;;;;4995316;28;20049;-40
2021/03/09 10:16:04;;;;;;;115.70;57.90;;;6.60;95.80;;;;;;4993819;28;20038;-39
2021/03/09 10:18:33;;;;;;;99.25;47.67;;;6.70;95.80;;;;;;4996482;28;20049;-39
2021/03/09 10:21:13;;;;;;;91.00;45.97;;;6.70;95.50;;;;;;4994522;28;20046;-39
2021/03/09 10:23:57;;;;;;;85.38;51.95;;;6.80;95.50;;;;;;4992754;28;20062;-39
2021/03/09 10:26:38;;;;;;;73.35;41.45;;;6.80;95.20;;;;;;4989272;28;20081;-39
2021/03/09 10:29:04;;;;;;;78.83;44.70;;;6.70;94.90;;;;;;4990513;28;20617;-39
2021/03/09 10:31:41;;;;;;;67.85;40.25;;;6.70;95.10;;;;;;4992146;28;20055;-39
2021/03/09 10:34:07;;;;;;;65.20;41.50;;;6.70;95.10;;;;;;4974490;28;20830;-39
2021/03/09 10:36:52;;;;;;;70.32;41.10;;;6.70;94.90;;;;;;4991423;28;20053;-39
2021/03/09 10:39:19;;;;;;;74.68;43.83;;;6.70;94.70;;;;;;4990442;28;20042;-47
2021/03/09 10:41:45;;;;;;;68.72;40.85;;;6.70;94.90;;;;;;4992786;28;20062;-43
2021/03/09 10:44:36;;;;;;;58.25;36.22;;;6.70;94.80;;;;;;4993101;28;20045;-40
2021/03/09 10:47:07;;;;;;;67.95;39.47;;;6.60;94.70;;;;;;4976203;28;20037;-43
2021/03/09 10:49:33;;;;;;;56.80;37.03;;;6.60;94.80;;;;;;4993078;28;20045;-43
2021/03/09 10:52:08;;;;;;;63.05;35.47;;;6.60;94.80;;;;;;4992241;28;20133;-41
2021/03/09 10:54:38;;;;;;;52.10;35.03;;;6.60;94.70;;;;;;4976030;28;20061;-41
2021/03/09 10:57:05;;;;;;;59.00;36.03;;;6.60;94.70;;;;;;4978803;28;20045;-42
2021/03/09 10:59:31;;;;;;;59.33;34.70;;;6.60;94.70;;;;;;4995669;28;20483;-41
2021/03/09 11:01:57;;;;;;;58.35;34.55;;;6.60;94.70;;;;;;4975724;28;20046;-40
2021/03/09 11:04:23;;;;;;;50.00;33.00;;;6.60;94.60;;;;;;4990981;28;20089;-41
2021/03/09 11:06:49;;;;;;;50.10;32.80;;;6.60;94.60;;;;;;4996541;28;20049;-40
2021/03/09 11:09:15;;;;;;;53.80;34.63;;;6.60;94.50;;;;;;4989246;28;20054;-40
2021/03/09 11:11:41;;;;;;;54.10;34.25;;;6.60;94.50;;;;;;4996348;28;20121;-42
2021/03/09 11:14:07;;;;;;;50.30;33.15;;;6.60;94.60;;;;;;5000606;28;20046;-42
2021/03/09 11:16:33;;;;;;;55.78;34.13;;;6.60;94.50;;;;;;4995259;28;20044;-42
2021/03/09 11:19:00;;;;;;;54.10;34.45;;;6.60;94.60;;;;;;4995431;28;20057;-43
2021/03/09 11:21:27;;;;;;;58.80;34.83;;;6.60;94.60;;;;;;4998023;28;20108;-42
2021/03/09 11:23:53;;;;;;;44.90;32.00;;;6.60;94.40;;;;;;4995569;28;20056;-42
2021/03/09 11:26:21;;;;;;;51.20;34.30;;;6.60;94.40;;;;;;4998210;28;20923;-41
2021/03/09 11:28:47;;;;;;;65.07;36.72;;;6.60;94.40;;;;;;4997232;28;20532;-40
2021/03/09 11:31:14;;;;;;;65.05;38.83;;;6.60;94.50;;;;;;4999793;28;20050;-41
2021/03/09 11:33:41;;;;;;;59.55;37.72;;;6.50;94.40;;;;;;4996668;28;20050;-41
2021/03/09 11:36:11;;;;;;;55.38;35.25;;;6.50;94.20;;;;;;4998127;28;20145;-42
2021/03/09 11:38:44;;;;;;;55.92;36.35;;;6.50;94.20;;;;;;4975647;28;20046;-43
2021/03/09 11:41:10;;;;;;;62.67;36.30;;;6.50;94.20;;;;;;4995829;28;20052;-42
2021/03/09 11:43:37;;;;;;;60.03;36.47;;;6.50;94.20;;;;;;4962083;28;20088;-43
2021/03/09 11:46:04;;;;;;;107.78;76.65;;;6.50;94.10;;;;;;4995359;28;20199;-43
2021/03/09 11:48:30;;;;;;;68.22;43.58;;;6.50;94.10;;;;;;4981836;28;20046;-42
2021/03/09 11:50:55;;;;;;;69.93;40.53;;;6.50;94.10;;;;;;4991266;28;20046;-42
2021/03/09 11:53:22;;;;;;;73.18;43.67;;;6.50;94.10;;;;;;4981685;28;20092;-43
2021/03/09 11:55:48;;;;;;;67.28;40.38;;;6.40;94.10;;;;;;4976341;28;20148;-42
2021/03/09 11:58:14;;;;;;;66.32;36.70;;;6.40;94.20;;;;;;4993937;28;20045;-43
2021/03/09 12:00:39;;;;;;;72.05;44.13;;;6.40;94.10;;;;;;4973615;28;20478;-42
2021/03/09 12:03:05;;;;;;;61.08;39.38;;;6.50;94.20;;;;;;4998002;28;20518;-41
2021/03/09 12:05:32;;;;;;;58.78;38.13;;;6.50;94.10;;;;;;4998130;28;20057;-41
2021/03/09 12:07:57;;;;;;;54.20;36.00;;;6.60;94.10;;;;;;4997657;28;20828;-41
2021/03/09 12:10:24;;;;;;;51.60;36.08;;;6.60;93.90;;;;;;5001327;28;20050;-41
2021/03/09 12:12:49;;;;;;;53.13;33.97;;;6.60;93.70;;;;;;4997077;28;20084;-40
2021/03/09 12:15:15;;;;;;;53.88;32.72;;;6.50;93.70;;;;;;4998843;28;20617;-41
2021/03/09 12:17:41;;;;;;;47.20;33.95;;;6.50;93.50;;;;;;4968150;28;20058;-42
2021/03/09 12:20:08;;;;;;;46.67;32.75;;;6.60;93.50;;;;;;4978870;28;20777;-41
2021/03/09 12:22:35;;;;;;;49.78;32.85;;;6.60;93.40;;;;;;4955594;28;20590;-41
2021/03/09 12:25:01;;;;;;;48.65;33.35;;;6.60;93.60;;;;;;4961034;28;20462;-42
2021/03/09 12:27:27;;;;;;;49.60;33.05;;;6.60;93.50;;;;;;4994932;28;20050;-40
2021/03/09 12:29:53;;;;;;;42.45;32.08;;;6.60;93.40;;;;;;4990795;28;20572;-43
2021/03/09 12:32:19;;;;;;;49.80;34.05;;;6.70;93.20;;;;;;4995027;28;20149;-43
2021/03/09 12:34:45;;;;;;;50.50;33.67;;;6.70;93.30;;;;;;4994938;28;20060;-43
2021/03/09 12:37:11;;;;;;;46.67;32.90;;;6.70;93.50;;;;;;4994368;28;20041;-41
2021/03/09 12:39:37;;;;;;;40.10;28.80;;;6.70;93.60;;;;;;4996771;28;20057;-43
2021/03/09 12:42:03;;;;;;;44.55;32.78;;;6.70;93.10;;;;;;4990931;28;20228;-46
2021/03/09 12:44:29;;;;;;;38.78;28.90;;;6.70;93.20;;;;;;4999285;28;20057;-40
2021/03/09 12:46:55;;;;;;;44.05;30.38;;;6.70;93.00;;;;;;4996027;28;20045;-43
2021/03/09 12:49:21;;;;;;;42.78;30.13;;;6.70;93.10;;;;;;4997706;28;20825;-44
2021/03/09 12:51:46;;;;;;;42.45;30.80;;;6.70;93.00;;;;;;4992982;28;20085;-45